createdAt,value
2022-12-04T00:00:13.606Z,99319.03
2022-12-04T00:00:27.188Z,99321.69
2022-12-04T00:00:39.157Z,99321.69
2022-12-04T00:00:51.109Z,99322.69
2022-12-04T00:01:07.836Z,99316.63
2022-12-04T00:01:22.403Z,99323.50
2022-12-04T00:01:34.405Z,99317.53
2022-12-04T00:01:46.380Z,99313.28
2022-12-04T00:01:58.360Z,99309.97
2022-12-04T00:02:10.664Z,99309.94
2022-12-04T00:02:22.780Z,99320.19
2022-12-04T00:02:35.129Z,99316.72
2022-12-04T00:02:47.108Z,99321.03
2022-12-04T00:02:59.139Z,99315.88
2022-12-04T00:03:11.214Z,99310.72
2022-12-04T00:03:23.217Z,99312.47
2022-12-04T00:03:35.942Z,99313.31
2022-12-04T00:03:48.250Z,99317.59
2022-12-04T00:04:01.453Z,99314.97
2022-12-04T00:04:13.575Z,99325.25
2022-12-04T00:04:25.657Z,99313.22
2022-12-04T00:04:37.712Z,99309.75
2022-12-04T00:04:50.224Z,99313.22
2022-12-04T00:05:04.014Z,99315.78
2022-12-04T00:05:16.195Z,99321.75
2022-12-04T00:05:28.120Z,99313.16
2022-12-04T00:05:40.346Z,99318.28
2022-12-04T00:06:03.608Z,99316.63
2022-12-04T00:06:18.052Z,99316.63
2022-12-04T00:06:30.871Z,99320.94
2022-12-04T00:06:42.813Z,99322.63
2022-12-04T00:06:58.860Z,99315.75
2022-12-04T00:07:11.276Z,99318.28
2022-12-04T00:07:23.183Z,99315.81
2022-12-04T00:07:35.953Z,99318.44
2022-12-04T00:07:48.114Z,99316.69
2022-12-04T00:08:00.158Z,99314.97
2022-12-04T00:08:12.260Z,99324.41
2022-12-04T00:08:24.244Z,99321.03
2022-12-04T00:08:36.898Z,99319.56
2022-12-04T00:08:49.710Z,99322.94
2022-12-04T00:09:02.211Z,99316.94
2022-12-04T00:09:14.178Z,99316.94
2022-12-04T00:09:26.144Z,99325.47
2022-12-04T00:09:38.050Z,99318.59
2022-12-04T00:09:50.125Z,99318.56
2022-12-04T00:10:02.882Z,99321.13
2022-12-04T00:10:14.791Z,99323.72
2022-12-04T00:10:26.744Z,99322.81
2022-12-04T00:10:43.571Z,99322.75
2022-12-04T00:10:56.242Z,99320.19
2022-12-04T00:11:10.546Z,99325.34
2022-12-04T00:11:26.113Z,99321.84
2022-12-04T00:11:38.534Z,99319.28
2022-12-04T00:11:50.645Z,99316.69
2022-12-04T00:12:03.398Z,99321.84
2022-12-04T00:12:15.282Z,99321.03
2022-12-04T00:12:27.755Z,99309.88
2022-12-04T00:12:39.668Z,99319.28
2022-12-04T00:12:52.519Z,99324.41
2022-12-04T00:13:04.465Z,99320.13
2022-12-04T00:13:16.393Z,99314.97
2022-12-04T00:13:28.358Z,99326.16
2022-12-04T00:13:41.781Z,99320.19
2022-12-04T00:13:54.219Z,99315.03
2022-12-04T00:14:07.494Z,99310.72
2022-12-04T00:14:19.715Z,99320.13
2022-12-04T00:14:31.709Z,99311.53
2022-12-04T00:15:16.442Z,99320.94
2022-12-04T00:15:25.057Z,99316.63
2022-12-04T00:15:43.140Z,99305.44
2022-12-04T00:15:55.162Z,99321.69
2022-12-04T00:16:10.822Z,99313.06
2022-12-04T00:16:25.983Z,99316.53
2022-12-04T00:16:38.466Z,99315.63
2022-12-04T00:16:50.824Z,99312.16
2022-12-04T00:17:02.842Z,99311.31
2022-12-04T00:17:14.911Z,99318.16
2022-12-04T00:17:26.882Z,99320.78
2022-12-04T00:17:38.810Z,99323.28
2022-12-04T00:17:51.131Z,99312.16
2022-12-04T00:18:03.127Z,99317.28
2022-12-04T00:18:15.171Z,99310.41
2022-12-04T00:18:27.821Z,99315.53
2022-12-04T00:18:40.886Z,99307.84
2022-12-04T00:18:53.457Z,99314.66
2022-12-04T00:19:05.496Z,99313.81
2022-12-04T00:19:17.501Z,99314.66
2022-12-04T00:19:29.471Z,99314.66
2022-12-04T00:19:41.506Z,99315.53
2022-12-04T00:19:53.640Z,99317.22
2022-12-04T00:20:06.645Z,99312.97
2022-12-04T00:20:18.591Z,99314.66
2022-12-04T00:20:30.492Z,99318.06
2022-12-04T00:20:42.437Z,99312.91
2022-12-04T00:20:54.624Z,99309.50
2022-12-04T00:21:08.580Z,99315.47
2022-12-04T00:21:21.073Z,99317.22
2022-12-04T00:21:33.237Z,99309.59
2022-12-04T00:21:45.910Z,99316.53
2022-12-04T00:21:57.883Z,99318.22
2022-12-04T00:22:09.846Z,99312.22
2022-12-04T00:22:21.778Z,99312.28
2022-12-04T00:22:34.183Z,99313.06
2022-12-04T00:22:46.160Z,99311.38
2022-12-04T00:22:58.099Z,99305.34
2022-12-04T00:23:10.036Z,99302.78
2022-12-04T00:23:21.971Z,99304.44
2022-12-04T00:23:35.197Z,99301.03
2022-12-04T00:23:47.915Z,99309.72
2022-12-04T00:23:59.914Z,99313.22
2022-12-04T00:24:12.384Z,99302.09
2022-12-04T00:24:24.269Z,99301.19
2022-12-04T00:24:36.163Z,99304.59
2022-12-04T00:24:48.261Z,99301.19
2022-12-04T00:25:01.351Z,99306.31
2022-12-04T00:25:13.277Z,99294.31
2022-12-04T00:25:25.257Z,99299.59
2022-12-04T00:25:41.183Z,99296.97
2022-12-04T00:26:00.217Z,99293.47
2022-12-04T00:26:15.224Z,99300.41
2022-12-04T00:26:29.123Z,99299.69
2022-12-04T00:26:41.066Z,99293.63
2022-12-04T00:26:52.996Z,99292.72
2022-12-04T00:27:04.942Z,99286.81
2022-12-04T00:27:16.871Z,99297.09
2022-12-04T00:27:28.795Z,99296.25
2022-12-04T00:27:40.887Z,99289.38
2022-12-04T00:27:52.771Z,99286.75
2022-12-04T00:28:04.843Z,99289.31
2022-12-04T00:28:18.130Z,99294.38
2022-12-04T00:28:30.132Z,99299.50
2022-12-04T00:28:42.845Z,99289.16
2022-12-04T00:28:55.812Z,99290.88
2022-12-04T00:29:08.236Z,99287.44
2022-12-04T00:29:20.250Z,99290.84
2022-12-04T00:29:32.322Z,99281.44
2022-12-04T00:29:44.292Z,99284.81
2022-12-04T00:29:57.270Z,99289.97
2022-12-04T00:30:09.741Z,99291.66
2022-12-04T00:30:21.961Z,99294.22
2022-12-04T00:30:33.833Z,99283.88
2022-12-04T00:30:46.212Z,99287.31
2022-12-04T00:30:58.854Z,99285.75
2022-12-04T00:31:13.983Z,99283.94
2022-12-04T00:31:27.756Z,99282.19
2022-12-04T00:31:41.031Z,99280.50
2022-12-04T00:31:53.052Z,99281.28
2022-12-04T00:32:05.376Z,99289.00
2022-12-04T00:32:17.386Z,99281.28
2022-12-04T00:32:30.196Z,99283.00
2022-12-04T00:32:42.122Z,99281.28
2022-12-04T00:32:54.248Z,99279.56
2022-12-04T00:33:06.122Z,99280.38
2022-12-04T00:33:18.129Z,99273.53
2022-12-04T00:33:30.076Z,99275.28
2022-12-04T00:33:43.588Z,99280.47
2022-12-04T00:33:55.958Z,99278.88
2022-12-04T00:34:08.887Z,99268.50
2022-12-04T00:34:23.537Z,99268.56
2022-12-04T00:34:35.512Z,99276.22
2022-12-04T00:34:47.722Z,99261.69
2022-12-04T00:34:59.724Z,99261.75
2022-12-04T00:35:11.702Z,99260.13
2022-12-04T00:35:23.763Z,99268.66
2022-12-04T00:35:35.775Z,99271.22
2022-12-04T00:35:47.895Z,99266.94
2022-12-04T00:36:02.067Z,99268.59
2022-12-04T00:36:18.037Z,99268.59
2022-12-04T00:36:30.203Z,99259.16
2022-12-04T00:36:42.313Z,99265.19
2022-12-04T00:36:54.283Z,99261.75
2022-12-04T00:37:06.167Z,99257.47
2022-12-04T00:37:18.086Z,99263.44
2022-12-04T00:37:30.258Z,99265.16
2022-12-04T00:37:42.199Z,99263.38
2022-12-04T00:37:54.399Z,99261.63
2022-12-04T00:38:06.350Z,99264.19
2022-12-04T00:38:18.734Z,99259.84
2022-12-04T00:38:30.956Z,99265.03
2022-12-04T00:38:44.032Z,99261.59
2022-12-04T00:38:58.399Z,99261.53
2022-12-04T00:39:10.345Z,99261.59
2022-12-04T00:39:22.566Z,99259.00
2022-12-04T00:39:34.488Z,99264.16
2022-12-04T00:39:46.840Z,99268.44
2022-12-04T00:39:59.027Z,99268.41
2022-12-04T00:40:12.345Z,99262.34
2022-12-04T00:40:24.307Z,99264.06
2022-12-04T00:40:37.014Z,99256.44
2022-12-04T00:40:50.932Z,99264.94
2022-12-04T00:41:02.944Z,99259.78
2022-12-04T00:41:18.148Z,99260.72
2022-12-04T00:41:32.413Z,99264.09
2022-12-04T00:41:44.570Z,99267.50
2022-12-04T00:41:56.487Z,99261.50
2022-12-04T00:42:08.431Z,99259.78
2022-12-04T00:42:20.410Z,99263.19
2022-12-04T00:42:32.310Z,99258.09
2022-12-04T00:42:44.263Z,99267.56
2022-12-04T00:42:56.183Z,99258.94
2022-12-04T00:43:08.088Z,99262.44
2022-12-04T00:43:20.792Z,99267.56
2022-12-04T00:43:33.257Z,99265.84
2022-12-04T00:43:48.355Z,99273.56
2022-12-04T00:44:02.511Z,99271.88
2022-12-04T00:44:14.403Z,99266.69
2022-12-04T00:44:27.703Z,99270.09
2022-12-04T00:44:39.655Z,99262.34
2022-12-04T00:44:52.166Z,99265.75
2022-12-04T00:45:04.419Z,99261.47
2022-12-04T00:45:16.912Z,99267.47
2022-12-04T00:45:29.006Z,99267.47
2022-12-04T00:45:41.301Z,99268.31
2022-12-04T00:45:53.425Z,99270.88
2022-12-04T00:46:05.726Z,99264.84
2022-12-04T00:46:18.964Z,99275.13
2022-12-04T00:46:31.206Z,99272.56
2022-12-04T00:46:43.337Z,99265.75
2022-12-04T00:46:55.248Z,99266.59
2022-12-04T00:47:08.068Z,99273.50
2022-12-04T00:47:20.015Z,99271.75
2022-12-04T00:47:32.226Z,99269.16
2022-12-04T00:47:44.286Z,99267.47
2022-12-04T00:47:56.766Z,99269.16
2022-12-04T00:48:08.753Z,99271.75
2022-12-04T00:48:21.231Z,99269.16
2022-12-04T00:48:33.586Z,99271.84
2022-12-04T00:48:46.238Z,99267.50
2022-12-04T00:49:02.031Z,99275.19
2022-12-04T00:49:13.942Z,99268.38
2022-12-04T00:49:25.848Z,99272.66
2022-12-04T00:49:37.811Z,99276.06
2022-12-04T00:49:50.445Z,99270.16
2022-12-04T00:50:02.336Z,99273.53
2022-12-04T00:50:14.260Z,99272.63
2022-12-04T00:50:26.234Z,99265.75
2022-12-04T00:50:38.756Z,99270.88
2022-12-04T00:50:50.751Z,99269.16
2022-12-04T00:51:07.512Z,99265.69
2022-12-04T00:51:24.606Z,99269.97
2022-12-04T00:51:36.568Z,99265.66
2022-12-04T00:51:48.479Z,99264.81
2022-12-04T00:52:00.436Z,99265.66
2022-12-04T00:52:12.456Z,99267.34
2022-12-04T00:52:24.493Z,99263.09
2022-12-04T00:52:36.587Z,99264.78
2022-12-04T00:52:48.503Z,99264.84
2022-12-04T00:53:00.398Z,99261.44
2022-12-04T00:53:13.250Z,99263.19
2022-12-04T00:53:25.428Z,99270.00
2022-12-04T00:53:38.526Z,99269.16
2022-12-04T00:53:51.801Z,99272.56
2022-12-04T00:54:04.231Z,99268.25
2022-12-04T00:54:16.167Z,99270.00
2022-12-04T00:54:28.114Z,99272.56
2022-12-04T00:54:40.082Z,99273.38
2022-12-04T00:54:52.099Z,99265.72
2022-12-04T00:55:04.466Z,99273.44
2022-12-04T00:55:16.519Z,99277.72
2022-12-04T00:55:28.417Z,99269.97
2022-12-04T00:55:41.196Z,99278.53
2022-12-04T00:55:53.141Z,99276.78
2022-12-04T00:56:07.397Z,99278.50
2022-12-04T00:56:24.996Z,99270.81
2022-12-04T00:56:37.347Z,99280.22
2022-12-04T00:56:49.305Z,99269.91
2022-12-04T00:57:02.189Z,99271.63
2022-12-04T00:57:14.186Z,99272.47
2022-12-04T00:57:26.186Z,99272.47
2022-12-04T00:57:38.211Z,99280.16
2022-12-04T00:57:54.671Z,99275.00
2022-12-04T00:58:10.435Z,99275.84
2022-12-04T00:58:22.379Z,99275.78
2022-12-04T00:58:34.591Z,99271.53
2022-12-04T00:58:47.185Z,99277.03
2022-12-04T00:59:01.104Z,99265.00
2022-12-04T00:59:13.402Z,99269.41
2022-12-04T00:59:25.458Z,99269.59
2022-12-04T00:59:38.340Z,99270.34
2022-12-04T00:59:50.335Z,99266.88
2022-12-04T01:00:03.507Z,99271.13
2022-12-04T01:00:16.003Z,99273.66
2022-12-04T01:00:27.992Z,99266.94
2022-12-04T01:00:42.139Z,99275.47
2022-12-04T01:01:03.030Z,99272.06
2022-12-04T01:01:17.760Z,99272.06
2022-12-04T01:01:30.836Z,99265.19
2022-12-04T01:01:42.888Z,99262.59
2022-12-04T01:01:54.858Z,99272.84
2022-12-04T01:02:06.797Z,99265.09
2022-12-04T01:02:18.837Z,99268.56
2022-12-04T01:02:31.442Z,99268.50
2022-12-04T01:02:43.451Z,99268.50
2022-12-04T01:02:55.541Z,99269.31
2022-12-04T01:03:08.385Z,99268.44
2022-12-04T01:03:20.404Z,99267.56
2022-12-04T01:03:32.870Z,99273.56
2022-12-04T01:03:44.977Z,99269.31
2022-12-04T01:03:57.076Z,99266.69
2022-12-04T01:04:09.473Z,99272.00
2022-12-04T01:04:21.457Z,99265.34
2022-12-04T01:04:33.994Z,99269.56
2022-12-04T01:04:45.996Z,99268.66
2022-12-04T01:05:00.397Z,99262.63
2022-12-04T01:05:12.904Z,99271.16
2022-12-04T01:05:25.171Z,99265.97
2022-12-04T01:05:45.486Z,99273.63
2022-12-04T01:05:57.475Z,99271.03
2022-12-04T01:06:43.787Z,99270.16
2022-12-04T01:06:58.050Z,99272.63
2022-12-04T01:07:13.884Z,99272.56
2022-12-04T01:07:26.084Z,99272.56
2022-12-04T01:07:38.496Z,99273.41
2022-12-04T01:07:50.943Z,99269.97
2022-12-04T01:08:03.048Z,99270.81
2022-12-04T01:08:15.136Z,99279.38
2022-12-04T01:08:27.990Z,99275.94
2022-12-04T01:08:40.058Z,99278.44
2022-12-04T01:08:53.462Z,99274.19
2022-12-04T01:09:06.356Z,99276.78
2022-12-04T01:09:18.838Z,99271.66
2022-12-04T01:09:31.650Z,99275.97
2022-12-04T01:09:43.570Z,99277.63
2022-12-04T01:09:55.814Z,99275.03
2022-12-04T01:10:12.174Z,99276.75
2022-12-04T01:10:24.180Z,99274.19
2022-12-04T01:10:39.367Z,99274.97
2022-12-04T01:10:52.142Z,99281.84
2022-12-04T01:11:06.810Z,99279.31
2022-12-04T01:11:20.829Z,99272.44
2022-12-04T01:11:33.707Z,99281.84
2022-12-04T01:11:46.217Z,99281.94
2022-12-04T01:11:58.155Z,99272.47
2022-12-04T01:12:12.994Z,99276.88
2022-12-04T01:12:28.412Z,99281.97
2022-12-04T01:12:40.371Z,99284.66
2022-12-04T01:12:55.561Z,99283.69
2022-12-04T01:13:08.278Z,99290.56
2022-12-04T01:13:20.462Z,99285.41
2022-12-04T01:13:32.366Z,99287.94
2022-12-04T01:13:45.197Z,99286.22
2022-12-04T01:13:58.030Z,99286.16
2022-12-04T01:14:10.040Z,99284.41
2022-12-04T01:14:21.997Z,99291.28
2022-12-04T01:14:34.036Z,99282.66
2022-12-04T01:14:45.931Z,99286.19
2022-12-04T01:14:58.010Z,99282.75
2022-12-04T01:15:10.530Z,99285.31
2022-12-04T01:15:22.443Z,99289.56
2022-12-04T01:15:39.246Z,99287.84
2022-12-04T01:15:51.281Z,99286.97
2022-12-04T01:16:03.445Z,99288.66
2022-12-04T01:16:28.058Z,99282.78
2022-12-04T01:16:40.904Z,99292.19
2022-12-04T01:16:52.996Z,99290.44
2022-12-04T01:17:05.189Z,99292.13
2022-12-04T01:17:17.139Z,99290.47
2022-12-04T01:17:29.669Z,99287.06
2022-12-04T01:17:41.631Z,99299.00
2022-12-04T01:17:54.229Z,99295.53
2022-12-04T01:18:06.573Z,99294.63
2022-12-04T01:18:19.334Z,99297.19
2022-12-04T01:18:31.315Z,99290.31
2022-12-04T01:18:43.428Z,99288.63
2022-12-04T01:18:55.974Z,99292.06
2022-12-04T01:19:10.041Z,99292.88
2022-12-04T01:19:21.971Z,99297.19
2022-12-04T01:19:33.867Z,99292.97
2022-12-04T01:19:45.774Z,99297.28
2022-12-04T01:19:57.956Z,99297.28
2022-12-04T01:20:12.526Z,99292.97
2022-12-04T01:20:24.678Z,99292.97
2022-12-04T01:20:37.354Z,99291.28
2022-12-04T01:20:51.244Z,99292.97
2022-12-04T01:21:03.338Z,99292.13
2022-12-04T01:21:15.967Z,99288.94
2022-12-04T01:21:28.137Z,99291.47
2022-12-04T01:21:41.244Z,99285.44
2022-12-04T01:21:53.244Z,99285.41
2022-12-04T01:22:05.336Z,99283.69
2022-12-04T01:22:17.312Z,99279.38
2022-12-04T01:22:30.138Z,99282.88
2022-12-04T01:22:42.202Z,99280.28
2022-12-04T01:22:54.326Z,99281.97
2022-12-04T01:23:06.385Z,99283.69
2022-12-04T01:23:20.758Z,99280.22
2022-12-04T01:23:32.685Z,99283.66
2022-12-04T01:23:44.626Z,99281.94
2022-12-04T01:23:58.120Z,99276.78
2022-12-04T01:24:10.480Z,99281.91
2022-12-04T01:24:22.397Z,99276.78
2022-12-04T01:24:34.340Z,99276.78
2022-12-04T01:24:46.318Z,99282.78
2022-12-04T01:24:58.482Z,99274.19
2022-12-04T01:25:10.684Z,99273.38
2022-12-04T01:25:22.647Z,99280.19
2022-12-04T01:25:34.563Z,99278.53
2022-12-04T01:25:58.060Z,99283.66
2022-12-04T01:26:11.148Z,99279.34
2022-12-04T01:26:23.134Z,99278.50
2022-12-04T01:26:35.654Z,99274.19
2022-12-04T01:26:47.658Z,99268.22
2022-12-04T01:26:59.902Z,99275.88
2022-12-04T01:27:11.840Z,99281.84
2022-12-04T01:27:25.145Z,99278.41
2022-12-04T01:27:37.094Z,99279.28
2022-12-04T01:27:49.408Z,99279.28
2022-12-04T01:28:01.364Z,99275.78
2022-12-04T01:28:13.349Z,99273.25
2022-12-04T01:28:27.123Z,99274.09
2022-12-04T01:28:39.615Z,99268.16
2022-12-04T01:28:51.608Z,99270.66
2022-12-04T01:29:03.576Z,99275.75
2022-12-04T01:29:15.955Z,99274.91
2022-12-04T01:29:27.890Z,99270.56
2022-12-04T01:29:40.207Z,99271.44
2022-12-04T01:29:52.210Z,99269.69
2022-12-04T01:30:05.180Z,99276.53
2022-12-04T01:30:17.164Z,99268.03
2022-12-04T01:30:29.127Z,99277.44
2022-12-04T01:30:41.053Z,99268.06
2022-12-04T01:31:10.863Z,99272.38
2022-12-04T01:31:23.719Z,99269.91
2022-12-04T01:31:36.106Z,99273.38
2022-12-04T01:31:48.103Z,99276.78
2022-12-04T01:32:00.339Z,99273.28
2022-12-04T01:32:12.509Z,99274.13
2022-12-04T01:32:25.137Z,99273.34
2022-12-04T01:32:37.072Z,99266.50
2022-12-04T01:32:49.370Z,99273.41
2022-12-04T01:33:01.277Z,99271.75
2022-12-04T01:33:13.854Z,99274.38
2022-12-04T01:33:26.162Z,99267.50
2022-12-04T01:33:38.910Z,99274.38
2022-12-04T01:33:51.309Z,99272.63
2022-12-04T01:34:03.224Z,99276.06
2022-12-04T01:34:15.170Z,99268.31
2022-12-04T01:34:27.132Z,99264.84
2022-12-04T01:34:40.112Z,99265.72
2022-12-04T01:34:52.041Z,99263.16
2022-12-04T01:35:04.502Z,99268.41
2022-12-04T01:35:16.611Z,99262.34
2022-12-04T01:35:28.493Z,99261.44
2022-12-04T01:35:40.418Z,99265.72
2022-12-04T01:35:57.199Z,99261.44
2022-12-04T01:36:12.124Z,99261.38
2022-12-04T01:36:26.806Z,99264.84
2022-12-04T01:36:38.771Z,99261.44
2022-12-04T01:36:51.853Z,99267.41
2022-12-04T01:37:03.787Z,99259.69
2022-12-04T01:37:15.732Z,99263.94
2022-12-04T01:37:30.940Z,99263.09
2022-12-04T01:37:42.917Z,99264.91
2022-12-04T01:37:54.880Z,99261.47
2022-12-04T01:38:07.187Z,99261.44
2022-12-04T01:38:19.698Z,99257.97
2022-12-04T01:38:31.662Z,99260.63
2022-12-04T01:38:43.790Z,99256.34
2022-12-04T01:38:56.541Z,99258.06
2022-12-04T01:39:09.116Z,99268.34
2022-12-04T01:39:21.012Z,99258.06
2022-12-04T01:39:36.360Z,99263.16
2022-12-04T01:39:49.297Z,99262.38
2022-12-04T01:40:01.437Z,99264.09
2022-12-04T01:40:15.538Z,99266.66
2022-12-04T01:40:27.520Z,99268.31
2022-12-04T01:40:44.481Z,99271.72
2022-12-04T01:40:57.257Z,99269.13
2022-12-04T01:41:11.461Z,99266.50
2022-12-04T01:41:27.778Z,99262.25
2022-12-04T01:41:39.821Z,99269.06
2022-12-04T01:41:52.049Z,99268.22
2022-12-04T01:42:04.841Z,99265.63
2022-12-04T01:42:17.885Z,99274.19
2022-12-04T01:42:29.846Z,99264.75
2022-12-04T01:42:41.971Z,99273.28
2022-12-04T01:42:53.931Z,99273.28
2022-12-04T01:43:09.709Z,99270.72
2022-12-04T01:43:23.289Z,99273.28
2022-12-04T01:43:37.112Z,99269.88
2022-12-04T01:44:22.458Z,99277.53
2022-12-04T01:44:36.138Z,99274.94
2022-12-04T01:45:25.265Z,99276.75
2022-12-04T01:45:43.089Z,99272.47
2022-12-04T01:45:59.638Z,99270.72
2022-12-04T01:46:12.109Z,99275.00
2022-12-04T01:46:24.110Z,99268.16
2022-12-04T01:46:36.290Z,99279.28
2022-12-04T01:46:56.173Z,99273.28
2022-12-04T01:47:10.207Z,99275.94
2022-12-04T01:47:22.094Z,99271.59
2022-12-04T01:47:34.003Z,99269.03
2022-12-04T01:47:46.420Z,99278.44
2022-12-04T01:48:07.841Z,99275.84
2022-12-04T01:48:39.912Z,99282.75
2022-12-04T01:48:54.047Z,99280.16
2022-12-04T01:49:10.669Z,99277.63
2022-12-04T01:49:38.421Z,99278.41
2022-12-04T01:49:50.361Z,99280.94
2022-12-04T01:50:02.389Z,99278.44
2022-12-04T01:50:14.951Z,99278.44
2022-12-04T01:50:26.910Z,99278.50
2022-12-04T01:50:39.892Z,99273.34
2022-12-04T01:50:57.683Z,99271.59
2022-12-04T01:51:18.535Z,99267.31
2022-12-04T01:51:40.857Z,99276.69
2022-12-04T01:52:11.558Z,99278.41
2022-12-04T01:52:26.430Z,99273.25
2022-12-04T01:52:39.111Z,99276.69
2022-12-04T01:52:51.887Z,99277.50
2022-12-04T01:53:03.934Z,99280.94
2022-12-04T01:53:16.908Z,99270.63
2022-12-04T01:53:29.703Z,99268.94
2022-12-04T01:53:44.186Z,99271.53
2022-12-04T01:54:04.846Z,99271.47
2022-12-04T01:54:22.523Z,99267.22
2022-12-04T01:54:37.286Z,99266.38
2022-12-04T01:54:56.399Z,99272.38
2022-12-04T01:55:09.194Z,99262.91
2022-12-04T01:55:21.248Z,99276.59
2022-12-04T01:55:33.504Z,99278.31
2022-12-04T01:55:46.712Z,99270.63
2022-12-04T01:55:59.113Z,99275.00
2022-12-04T01:56:12.314Z,99264.78
2022-12-04T01:56:30.092Z,99273.28
2022-12-04T01:56:54.965Z,99275.88
2022-12-04T01:57:11.713Z,99271.53
2022-12-04T01:57:26.889Z,99277.53
2022-12-04T01:57:39.174Z,99275.00
2022-12-04T01:57:51.788Z,99275.00
2022-12-04T01:58:04.040Z,99273.28
2022-12-04T01:58:21.339Z,99274.13
2022-12-04T01:58:40.059Z,99276.69
2022-12-04T01:58:56.665Z,99274.94
2022-12-04T01:59:10.741Z,99268.94
2022-12-04T01:59:26.712Z,99276.69
2022-12-04T01:59:45.023Z,99277.50
2022-12-04T02:00:01.903Z,99276.59
2022-12-04T02:00:16.112Z,99271.66
2022-12-04T02:00:28.471Z,99273.28
2022-12-04T02:00:40.379Z,99271.59
2022-12-04T02:00:58.371Z,99267.34
2022-12-04T02:01:11.164Z,99270.72
2022-12-04T02:01:24.773Z,99266.47
2022-12-04T02:01:50.006Z,99271.53
2022-12-04T02:02:19.292Z,99263.75
2022-12-04T02:02:37.531Z,99270.63
2022-12-04T02:02:49.979Z,99268.06
2022-12-04T02:03:02.052Z,99271.47
2022-12-04T02:03:15.458Z,99269.78
2022-12-04T02:03:27.444Z,99268.06
2022-12-04T02:03:41.171Z,99271.47
2022-12-04T02:03:54.057Z,99264.66
2022-12-04T02:04:06.135Z,99262.91
2022-12-04T02:04:18.182Z,99264.63
2022-12-04T02:04:31.383Z,99268.88
2022-12-04T02:04:44.218Z,99272.31
2022-12-04T02:04:56.739Z,99271.47
2022-12-04T02:05:14.592Z,99271.44
2022-12-04T02:05:27.225Z,99264.56
2022-12-04T02:05:39.127Z,99273.19
2022-12-04T02:05:51.174Z,99265.41
2022-12-04T02:06:03.624Z,99273.13
2022-12-04T02:06:15.965Z,99264.53
2022-12-04T02:06:27.876Z,99265.38
2022-12-04T02:06:40.533Z,99267.03
2022-12-04T02:06:52.614Z,99271.38
2022-12-04T02:07:05.211Z,99271.34
2022-12-04T02:07:17.134Z,99267.88
2022-12-04T02:07:31.268Z,99274.75
2022-12-04T02:07:46.626Z,99267.00
2022-12-04T02:08:05.552Z,99266.94
2022-12-04T02:08:19.021Z,99266.22
2022-12-04T02:08:32.694Z,99273.19
2022-12-04T02:08:44.735Z,99274.00
2022-12-04T02:08:56.668Z,99268.06
2022-12-04T02:09:08.976Z,99273.25
2022-12-04T02:09:26.815Z,99271.53
2022-12-04T02:09:41.233Z,99271.53
2022-12-04T02:09:56.548Z,99268.16
2022-12-04T02:10:09.961Z,99273.25
2022-12-04T02:10:35.873Z,99270.66
2022-12-04T02:10:59.683Z,99266.38
2022-12-04T02:11:34.497Z,99265.47
2022-12-04T02:12:32.775Z,99269.69
2022-12-04T02:13:29.218Z,99268.84
2022-12-04T02:13:59.707Z,99273.13
2022-12-04T02:14:31.158Z,99273.09
2022-12-04T02:15:14.138Z,99267.97
2022-12-04T02:15:41.124Z,99271.47
2022-12-04T02:16:22.493Z,99269.78
2022-12-04T02:16:45.813Z,99271.44
2022-12-04T02:17:09.626Z,99267.97
2022-12-04T02:17:39.170Z,99273.09
2022-12-04T02:18:00.003Z,99267.03
2022-12-04T02:18:26.714Z,99267.94
2022-12-04T02:18:46.404Z,99271.44
2022-12-04T02:19:11.160Z,99265.38
2022-12-04T02:19:32.115Z,99264.53
2022-12-04T02:19:56.901Z,99262.78
2022-12-04T02:20:20.118Z,99265.38
2022-12-04T02:20:53.599Z,99268.78
2022-12-04T02:21:23.856Z,99264.53
2022-12-04T02:21:43.399Z,99266.22
2022-12-04T02:21:59.264Z,99267.97
2022-12-04T02:22:35.534Z,99266.50
2022-12-04T02:23:24.831Z,99265.66
2022-12-04T02:23:51.702Z,99261.34
2022-12-04T02:24:19.055Z,99271.59
2022-12-04T02:24:49.757Z,99267.25
2022-12-04T02:25:31.598Z,99268.91
2022-12-04T02:25:54.225Z,99268.94
2022-12-04T02:26:08.947Z,99269.81
2022-12-04T02:26:33.601Z,99274.91
2022-12-04T02:27:18.134Z,99275.75
2022-12-04T02:28:14.470Z,99275.69
2022-12-04T02:28:50.006Z,99274.78
2022-12-04T02:29:25.976Z,99273.00
2022-12-04T02:29:49.628Z,99276.41
2022-12-04T02:30:05.505Z,99278.16
2022-12-04T02:30:18.266Z,99278.16
2022-12-04T02:30:31.850Z,99273.00
2022-12-04T02:30:45.244Z,99273.00
2022-12-04T02:31:00.297Z,99270.41
2022-12-04T02:31:28.767Z,99266.97
2022-12-04T02:31:48.402Z,99272.97
2022-12-04T02:32:06.411Z,99273.81
2022-12-04T02:32:40.264Z,99272.94
2022-12-04T02:33:00.462Z,99276.34
2022-12-04T02:33:12.962Z,99278.06
2022-12-04T02:33:30.071Z,99280.56
2022-12-04T02:33:41.929Z,99278.03
2022-12-04T02:34:04.489Z,99272.84
2022-12-04T02:34:25.584Z,99269.41
2022-12-04T02:34:46.428Z,99277.94
2022-12-04T02:35:12.633Z,99270.22
2022-12-04T02:35:37.413Z,99273.66
2022-12-04T02:36:03.121Z,99277.44
2022-12-04T02:36:23.979Z,99265.56
2022-12-04T02:36:48.584Z,99264.78
2022-12-04T02:37:05.331Z,99267.41
2022-12-04T02:37:21.264Z,99266.50
2022-12-04T02:37:37.649Z,99271.59
2022-12-04T02:37:58.812Z,99268.22
2022-12-04T02:38:21.215Z,99264.75
2022-12-04T02:38:41.652Z,99268.06
2022-12-04T02:38:58.539Z,99275.75
2022-12-04T02:39:25.179Z,99266.28
2022-12-04T02:39:55.513Z,99275.66
2022-12-04T02:40:16.112Z,99266.19
2022-12-04T02:40:34.065Z,99274.75
2022-12-04T02:40:52.238Z,99260.97
2022-12-04T02:41:25.308Z,99269.53
2022-12-04T02:41:51.629Z,99269.53
2022-12-04T02:42:12.005Z,99260.94
2022-12-04T02:42:45.279Z,99259.22
2022-12-04T02:43:08.472Z,99261.13
2022-12-04T02:43:45.300Z,99266.22
2022-12-04T02:44:20.176Z,99259.28
2022-12-04T02:44:39.291Z,99256.66
2022-12-04T02:44:57.363Z,99264.34
2022-12-04T02:45:40.191Z,99265.19
2022-12-04T02:46:05.524Z,99258.38
2022-12-04T02:46:17.508Z,99262.59
2022-12-04T02:46:38.636Z,99260.84
2022-12-04T02:46:57.315Z,99260.03
2022-12-04T02:47:12.822Z,99252.31
2022-12-04T02:47:26.412Z,99255.69
2022-12-04T02:47:41.932Z,99261.72
2022-12-04T02:47:55.303Z,99257.38
2022-12-04T02:48:08.272Z,99255.69
2022-12-04T02:48:21.934Z,99252.31
2022-12-04T02:48:40.112Z,99260.00
2022-12-04T02:48:55.989Z,99251.41
2022-12-04T02:49:14.957Z,99250.69
2022-12-04T02:49:37.070Z,99251.53
2022-12-04T02:49:59.706Z,99255.03
2022-12-04T02:50:18.705Z,99254.16
2022-12-04T02:50:34.062Z,99255.81
2022-12-04T02:50:49.481Z,99256.72
2022-12-04T02:51:03.466Z,99254.16
2022-12-04T02:51:18.978Z,99254.06
2022-12-04T02:51:34.876Z,99252.34
2022-12-04T02:51:50.202Z,99256.63
2022-12-04T02:52:07.020Z,99248.94
2022-12-04T02:52:23.014Z,99250.66
2022-12-04T02:52:40.177Z,99254.06
2022-12-04T02:52:58.702Z,99250.59
2022-12-04T02:53:16.647Z,99249.72
2022-12-04T02:53:34.206Z,99249.88
2022-12-04T02:53:53.409Z,99249.09
2022-12-04T02:54:17.085Z,99243.94
2022-12-04T02:54:37.492Z,99243.88
2022-12-04T02:54:57.699Z,99244.69
2022-12-04T02:55:16.338Z,99241.28
2022-12-04T02:55:50.825Z,99242.97
2022-12-04T02:56:08.389Z,99245.53
2022-12-04T02:56:27.979Z,99241.22
2022-12-04T02:56:44.008Z,99238.63
2022-12-04T02:56:58.672Z,99240.44
2022-12-04T02:57:16.845Z,99244.78
2022-12-04T02:57:34.497Z,99239.66
2022-12-04T02:57:51.640Z,99236.31
2022-12-04T02:58:12.963Z,99238.97